sensor_id;sensor_type;location;lat;lon;timestamp;P1;durP1;ratioP1;P2;durP2;ratioP2
1831;SDS011;1680;48.106;11.708;2023-08-24T00:02:06;8.77;;;8.17;;
1831;SDS011;1680;48.106;11.708;2023-08-24T00:04:33;9.60;;;8.90;;
1831;SDS011;1680;48.106;11.708;2023-08-24T00:07:01;10.03;;;9.13;;
1831;SDS011;1680;48.106;11.708;2023-08-24T00:09:29;9.90;;;9.10;;
1831;SDS011;1680;48.106;11.708;2023-08-24T00:11:57;10.10;;;9.30;;
1831;SDS011;1680;48.106;11.708;2023-08-24T00:14:24;9.30;;;8.60;;
1831;SDS011;1680;48.106;11.708;2023-08-24T00:16:51;9.20;;;8.50;;
1831;SDS011;1680;48.106;11.708;2023-08-24T00:19:18;9.67;;;8.87;;
1831;SDS011;1680;48.106;11.708;2023-08-24T00:21:45;8.77;;;8.10;;
1831;SDS011;1680;48.106;11.708;2023-08-24T00:24:13;9.67;;;8.97;;
1831;SDS011;1680;48.106;11.708;2023-08-24T00:26:41;9.53;;;8.73;;
1831;SDS011;1680;48.106;11.708;2023-08-24T00:29:08;10.20;;;9.50;;
1831;SDS011;1680;48.106;11.708;2023-08-24T00:31:36;10.60;;;9.80;;
1831;SDS011;1680;48.106;11.708;2023-08-24T00:34:03;10.73;;;9.83;;
1831;SDS011;1680;48.106;11.708;2023-08-24T00:36:30;11.03;;;10.20;;
1831;SDS011;1680;48.106;11.708;2023-08-24T00:38:58;11.23;;;10.33;;
1831;SDS011;1680;48.106;11.708;2023-08-24T00:41:26;10.57;;;9.77;;
1831;SDS011;1680;48.106;11.708;2023-08-24T00:43:54;11.23;;;10.43;;
1831;SDS011;1680;48.106;11.708;2023-08-24T00:46:21;11.13;;;10.20;;
1831;SDS011;1680;48.106;11.708;2023-08-24T00:48:52;11.67;;;10.57;;
1831;SDS011;1680;48.106;11.708;2023-08-24T00:51:22;11.27;;;10.30;;
1831;SDS011;1680;48.106;11.708;2023-08-24T00:53:49;11.40;;;10.60;;
1831;SDS011;1680;48.106;11.708;2023-08-24T00:56:17;11.07;;;10.10;;
1831;SDS011;1680;48.106;11.708;2023-08-24T00:58:50;11.07;;;10.17;;
1831;SDS011;1680;48.106;11.708;2023-08-24T01:01:19;10.90;;;10.00;;
1831;SDS011;1680;48.106;11.708;2023-08-24T01:03:46;12.27;;;11.37;;
1831;SDS011;1680;48.106;11.708;2023-08-24T01:06:13;11.60;;;10.60;;
1831;SDS011;1680;48.106;11.708;2023-08-24T01:08:40;10.60;;;9.80;;
1831;SDS011;1680;48.106;11.708;2023-08-24T01:11:09;10.53;;;9.73;;
1831;SDS011;1680;48.106;11.708;2023-08-24T01:13:44;10.87;;;10.07;;
1831;SDS011;1680;48.106;11.708;2023-08-24T01:16:18;11.30;;;10.50;;
1831;SDS011;1680;48.106;11.708;2023-08-24T01:18:53;11.23;;;10.23;;
1831;SDS011;1680;48.106;11.708;2023-08-24T01:21:22;10.97;;;10.07;;
1831;SDS011;1680;48.106;11.708;2023-08-24T01:23:53;10.30;;;9.57;;
1831;SDS011;1680;48.106;11.708;2023-08-24T01:26:27;11.00;;;10.20;;
1831;SDS011;1680;48.106;11.708;2023-08-24T01:28:55;10.97;;;10.17;;
1831;SDS011;1680;48.106;11.708;2023-08-24T01:31:23;11.63;;;10.73;;
1831;SDS011;1680;48.106;11.708;2023-08-24T01:33:51;11.07;;;10.20;;
1831;SDS011;1680;48.106;11.708;2023-08-24T01:36:18;11.03;;;10.23;;
1831;SDS011;1680;48.106;11.708;2023-08-24T01:38:46;11.10;;;10.03;;
1831;SDS011;1680;48.106;11.708;2023-08-24T01:41:22;11.60;;;10.70;;
1831;SDS011;1680;48.106;11.708;2023-08-24T01:43:54;10.03;;;9.30;;
1831;SDS011;1680;48.106;11.708;2023-08-24T01:46:25;10.67;;;9.87;;
1831;SDS011;1680;48.106;11.708;2023-08-24T01:48:53;11.00;;;10.20;;
1831;SDS011;1680;48.106;11.708;2023-08-24T01:51:21;11.60;;;10.57;;
1831;SDS011;1680;48.106;11.708;2023-08-24T01:53:50;12.07;;;11.07;;
1831;SDS011;1680;48.106;11.708;2023-08-24T01:56:19;12.20;;;11.00;;
1831;SDS011;1680;48.106;11.708;2023-08-24T01:58:46;11.23;;;10.37;;
1831;SDS011;1680;48.106;11.708;2023-08-24T02:01:15;10.77;;;9.87;;
1831;SDS011;1680;48.106;11.708;2023-08-24T02:03:42;11.17;;;10.37;;
1831;SDS011;1680;48.106;11.708;2023-08-24T02:06:09;12.10;;;11.10;;
1831;SDS011;1680;48.106;11.708;2023-08-24T02:08:36;12.13;;;10.97;;
1831;SDS011;1680;48.106;11.708;2023-08-24T02:11:04;12.43;;;11.47;;
1831;SDS011;1680;48.106;11.708;2023-08-24T02:13:31;12.07;;;11.00;;
1831;SDS011;1680;48.106;11.708;2023-08-24T02:16:01;12.03;;;11.13;;
1831;SDS011;1680;48.106;11.708;2023-08-24T02:18:30;12.40;;;11.40;;
1831;SDS011;1680;48.106;11.708;2023-08-24T02:20:57;11.77;;;10.83;;
1831;SDS011;1680;48.106;11.708;2023-08-24T02:23:25;11.30;;;10.40;;
1831;SDS011;1680;48.106;11.708;2023-08-24T02:25:52;11.67;;;10.77;;
1831;SDS011;1680;48.106;11.708;2023-08-24T02:28:19;11.37;;;10.47;;
1831;SDS011;1680;48.106;11.708;2023-08-24T02:30:46;11.87;;;10.87;;
1831;SDS011;1680;48.106;11.708;2023-08-24T02:33:13;12.23;;;11.30;;
1831;SDS011;1680;48.106;11.708;2023-08-24T02:35:42;12.17;;;11.17;;
1831;SDS011;1680;48.106;11.708;2023-08-24T02:38:10;11.50;;;10.60;;
1831;SDS011;1680;48.106;11.708;2023-08-24T02:40:37;11.70;;;10.70;;
1831;SDS011;1680;48.106;11.708;2023-08-24T02:43:04;12.10;;;11.10;;
1831;SDS011;1680;48.106;11.708;2023-08-24T02:45:31;11.20;;;10.30;;
1831;SDS011;1680;48.106;11.708;2023-08-24T02:47:58;11.03;;;10.03;;
1831;SDS011;1680;48.106;11.708;2023-08-24T02:50:26;11.80;;;10.90;;
1831;SDS011;1680;48.106;11.708;2023-08-24T02:52:54;11.13;;;10.33;;
1831;SDS011;1680;48.106;11.708;2023-08-24T02:55:23;11.70;;;10.90;;
1831;SDS011;1680;48.106;11.708;2023-08-24T02:57:50;12.03;;;11.00;;
1831;SDS011;1680;48.106;11.708;2023-08-24T03:00:17;12.80;;;11.80;;
1831;SDS011;1680;48.106;11.708;2023-08-24T03:02:44;12.00;;;11.10;;
1831;SDS011;1680;48.106;11.708;2023-08-24T03:05:12;12.37;;;11.47;;
1831;SDS011;1680;48.106;11.708;2023-08-24T03:07:39;12.13;;;11.03;;
1831;SDS011;1680;48.106;11.708;2023-08-24T03:10:08;11.33;;;10.50;;
1831;SDS011;1680;48.106;11.708;2023-08-24T03:12:35;11.80;;;10.90;;
1831;SDS011;1680;48.106;11.708;2023-08-24T03:15:02;11.20;;;10.30;;
1831;SDS011;1680;48.106;11.708;2023-08-24T03:17:30;11.67;;;10.70;;
1831;SDS011;1680;48.106;11.708;2023-08-24T03:19:58;11.70;;;10.83;;
1831;SDS011;1680;48.106;11.708;2023-08-24T03:22:25;12.57;;;11.57;;
1831;SDS011;1680;48.106;11.708;2023-08-24T03:24:52;12.07;;;11.17;;
1831;SDS011;1680;48.106;11.708;2023-08-24T03:27:20;11.70;;;10.80;;
1831;SDS011;1680;48.106;11.708;2023-08-24T03:29:48;12.40;;;11.50;;
1831;SDS011;1680;48.106;11.708;2023-08-24T03:32:15;11.37;;;10.47;;
1831;SDS011;1680;48.106;11.708;2023-08-24T03:34:42;12.30;;;11.30;;
1831;SDS011;1680;48.106;11.708;2023-08-24T03:37:09;11.63;;;10.63;;
1831;SDS011;1680;48.106;11.708;2023-08-24T03:39:36;12.17;;;11.03;;
1831;SDS011;1680;48.106;11.708;2023-08-24T03:42:03;12.00;;;11.10;;
1831;SDS011;1680;48.106;11.708;2023-08-24T03:44:32;12.00;;;11.10;;
1831;SDS011;1680;48.106;11.708;2023-08-24T03:47:01;13.03;;;11.83;;
1831;SDS011;1680;48.106;11.708;2023-08-24T03:49:28;11.77;;;10.60;;
1831;SDS011;1680;48.106;11.708;2023-08-24T03:51:55;11.90;;;10.70;;
1831;SDS011;1680;48.106;11.708;2023-08-24T03:54:23;11.03;;;10.03;;
1831;SDS011;1680;48.106;11.708;2023-08-24T03:56:50;13.33;;;12.00;;
1831;SDS011;1680;48.106;11.708;2023-08-24T03:59:17;11.63;;;10.73;;
1831;SDS011;1680;48.106;11.708;2023-08-24T04:01:45;11.70;;;10.60;;
1831;SDS011;1680;48.106;11.708;2023-08-24T04:04:12;12.07;;;11.17;;
1831;SDS011;1680;48.106;11.708;2023-08-24T04:06:40;10.90;;;10.07;;
1831;SDS011;1680;48.106;11.708;2023-08-24T04:09:07;11.60;;;10.70;;
1831;SDS011;1680;48.106;11.708;2023-08-24T04:11:34;12.57;;;11.47;;
1831;SDS011;1680;48.106;11.708;2023-08-24T04:14:01;11.67;;;10.80;;
1831;SDS011;1680;48.106;11.708;2023-08-24T04:16:28;11.57;;;10.67;;
1831;SDS011;1680;48.106;11.708;2023-08-24T04:18:57;11.77;;;10.67;;
1831;SDS011;1680;48.106;11.708;2023-08-24T04:21:24;11.70;;;10.70;;
1831;SDS011;1680;48.106;11.708;2023-08-24T04:23:51;12.00;;;10.90;;
1831;SDS011;1680;48.106;11.708;2023-08-24T04:26:18;11.80;;;10.90;;
1831;SDS011;1680;48.106;11.708;2023-08-24T04:28:45;11.47;;;10.47;;
1831;SDS011;1680;48.106;11.708;2023-08-24T04:31:12;12.03;;;11.10;;
1831;SDS011;1680;48.106;11.708;2023-08-24T04:33:40;11.67;;;10.87;;
1831;SDS011;1680;48.106;11.708;2023-08-24T04:36:09;11.30;;;10.40;;
1831;SDS011;1680;48.106;11.708;2023-08-24T04:38:36;11.57;;;10.60;;
1831;SDS011;1680;48.106;11.708;2023-08-24T04:41:03;11.87;;;10.97;;
1831;SDS011;1680;48.106;11.708;2023-08-24T04:43:32;11.40;;;10.50;;
1831;SDS011;1680;48.106;11.708;2023-08-24T04:46:01;11.20;;;10.40;;
1831;SDS011;1680;48.106;11.708;2023-08-24T04:48:29;11.70;;;10.80;;
1831;SDS011;1680;48.106;11.708;2023-08-24T04:50:58;12.13;;;10.87;;
1831;SDS011;1680;48.106;11.708;2023-08-24T04:53:26;11.10;;;10.20;;
1831;SDS011;1680;48.106;11.708;2023-08-24T04:55:53;12.43;;;11.50;;
1831;SDS011;1680;48.106;11.708;2023-08-24T04:58:20;12.57;;;11.57;;
1831;SDS011;1680;48.106;11.708;2023-08-24T05:00:48;11.90;;;11.00;;
1831;SDS011;1680;48.106;11.708;2023-08-24T05:03:15;12.20;;;11.10;;
1831;SDS011;1680;48.106;11.708;2023-08-24T05:05:42;11.67;;;10.57;;
1831;SDS011;1680;48.106;11.708;2023-08-24T05:08:11;11.90;;;10.90;;
1831;SDS011;1680;48.106;11.708;2023-08-24T05:10:39;12.60;;;11.60;;
1831;SDS011;1680;48.106;11.708;2023-08-24T05:13:07;12.23;;;11.33;;
1831;SDS011;1680;48.106;11.708;2023-08-24T05:15:34;11.67;;;10.77;;
1831;SDS011;1680;48.106;11.708;2023-08-24T05:18:01;12.47;;;11.37;;
1831;SDS011;1680;48.106;11.708;2023-08-24T05:20:28;13.20;;;11.23;;
1831;SDS011;1680;48.106;11.708;2023-08-24T05:22:55;12.13;;;10.90;;
1831;SDS011;1680;48.106;11.708;2023-08-24T05:25:23;13.00;;;11.80;;
1831;SDS011;1680;48.106;11.708;2023-08-24T05:27:51;12.83;;;11.80;;
1831;SDS011;1680;48.106;11.708;2023-08-24T05:30:18;12.23;;;11.27;;
1831;SDS011;1680;48.106;11.708;2023-08-24T05:32:46;12.60;;;11.70;;
1831;SDS011;1680;48.106;11.708;2023-08-24T05:35:13;13.40;;;12.20;;
1831;SDS011;1680;48.106;11.708;2023-08-24T05:37:40;13.50;;;12.30;;
1831;SDS011;1680;48.106;11.708;2023-08-24T05:40:07;12.67;;;11.67;;
1831;SDS011;1680;48.106;11.708;2023-08-24T05:42:35;14.13;;;13.03;;
1831;SDS011;1680;48.106;11.708;2023-08-24T05:45:04;12.80;;;11.80;;
1831;SDS011;1680;48.106;11.708;2023-08-24T05:47:32;14.30;;;12.87;;
1831;SDS011;1680;48.106;11.708;2023-08-24T05:49:59;12.90;;;11.90;;
1831;SDS011;1680;48.106;11.708;2023-08-24T05:52:26;14.43;;;13.33;;
1831;SDS011;1680;48.106;11.708;2023-08-24T05:54:54;13.30;;;12.20;;
1831;SDS011;1680;48.106;11.708;2023-08-24T05:57:21;13.77;;;12.50;;
1831;SDS011;1680;48.106;11.708;2023-08-24T05:59:48;14.57;;;13.17;;
1831;SDS011;1680;48.106;11.708;2023-08-24T06:02:16;12.90;;;11.80;;
1831;SDS011;1680;48.106;11.708;2023-08-24T06:04:44;13.60;;;12.60;;
1831;SDS011;1680;48.106;11.708;2023-08-24T06:07:11;14.63;;;13.43;;
1831;SDS011;1680;48.106;11.708;2023-08-24T06:09:38;13.47;;;12.37;;
1831;SDS011;1680;48.106;11.708;2023-08-24T06:12:06;14.63;;;13.13;;
1831;SDS011;1680;48.106;11.708;2023-08-24T06:14:34;14.10;;;12.90;;
1831;SDS011;1680;48.106;11.708;2023-08-24T06:17:01;14.70;;;13.40;;
1831;SDS011;1680;48.106;11.708;2023-08-24T06:19:30;14.10;;;12.90;;
1831;SDS011;1680;48.106;11.708;2023-08-24T06:21:57;14.67;;;13.50;;
1831;SDS011;1680;48.106;11.708;2023-08-24T06:24:24;13.93;;;12.73;;
1831;SDS011;1680;48.106;11.708;2023-08-24T06:26:51;13.50;;;12.07;;
1831;SDS011;1680;48.106;11.708;2023-08-24T06:29:18;13.70;;;12.50;;
1831;SDS011;1680;48.106;11.708;2023-08-24T06:31:45;13.43;;;12.27;;
1831;SDS011;1680;48.106;11.708;2023-08-24T06:34:12;13.03;;;11.93;;
1831;SDS011;1680;48.106;11.708;2023-08-24T06:36:41;14.70;;;13.40;;
1831;SDS011;1680;48.106;11.708;2023-08-24T06:39:08;13.43;;;12.33;;
1831;SDS011;1680;48.106;11.708;2023-08-24T06:41:36;13.40;;;12.20;;
1831;SDS011;1680;48.106;11.708;2023-08-24T06:44:03;13.57;;;12.20;;
1831;SDS011;1680;48.106;11.708;2023-08-24T06:46:30;12.60;;;11.57;;
1831;SDS011;1680;48.106;11.708;2023-08-24T06:48:58;11.67;;;10.70;;
1831;SDS011;1680;48.106;11.708;2023-08-24T06:51:25;12.43;;;11.43;;
1831;SDS011;1680;48.106;11.708;2023-08-24T06:53:55;12.70;;;11.60;;
1831;SDS011;1680;48.106;11.708;2023-08-24T06:56:22;12.40;;;11.17;;
1831;SDS011;1680;48.106;11.708;2023-08-24T06:58:49;12.10;;;11.20;;
1831;SDS011;1680;48.106;11.708;2023-08-24T07:01:16;12.33;;;11.33;;
1831;SDS011;1680;48.106;11.708;2023-08-24T07:03:44;12.77;;;11.50;;
1831;SDS011;1680;48.106;11.708;2023-08-24T07:06:11;11.37;;;10.47;;
1831;SDS011;1680;48.106;11.708;2023-08-24T07:08:38;11.97;;;10.90;;
1831;SDS011;1680;48.106;11.708;2023-08-24T07:11:07;12.73;;;11.70;;
1831;SDS011;1680;48.106;11.708;2023-08-24T07:13:37;12.17;;;11.07;;
1831;SDS011;1680;48.106;11.708;2023-08-24T07:16:04;12.43;;;11.43;;
1831;SDS011;1680;48.106;11.708;2023-08-24T07:18:31;11.50;;;10.60;;
1831;SDS011;1680;48.106;11.708;2023-08-24T07:20:58;11.67;;;10.60;;
1831;SDS011;1680;48.106;11.708;2023-08-24T07:23:25;13.17;;;11.97;;
1831;SDS011;1680;48.106;11.708;2023-08-24T07:25:53;12.80;;;11.50;;
1831;SDS011;1680;48.106;11.708;2023-08-24T07:28:22;11.43;;;10.33;;
1831;SDS011;1680;48.106;11.708;2023-08-24T07:30:49;11.50;;;10.50;;
1831;SDS011;1680;48.106;11.708;2023-08-24T07:33:20;12.27;;;11.17;;
1831;SDS011;1680;48.106;11.708;2023-08-24T07:35:48;10.97;;;10.10;;
1831;SDS011;1680;48.106;11.708;2023-08-24T07:38:15;11.20;;;10.30;;
1831;SDS011;1680;48.106;11.708;2023-08-24T07:40:42;11.63;;;10.63;;
1831;SDS011;1680;48.106;11.708;2023-08-24T07:43:09;10.87;;;10.07;;
1831;SDS011;1680;48.106;11.708;2023-08-24T07:45:38;11.70;;;10.70;;
1831;SDS011;1680;48.106;11.708;2023-08-24T07:48:06;11.07;;;9.60;;
1831;SDS011;1680;48.106;11.708;2023-08-24T07:50:33;12.00;;;10.90;;
1831;SDS011;1680;48.106;11.708;2023-08-24T07:53:00;11.63;;;10.80;;
1831;SDS011;1680;48.106;11.708;2023-08-24T07:55:27;12.23;;;11.10;;
1831;SDS011;1680;48.106;11.708;2023-08-24T07:57:55;11.67;;;10.50;;
1831;SDS011;1680;48.106;11.708;2023-08-24T08:00:22;11.57;;;10.57;;
1831;SDS011;1680;48.106;11.708;2023-08-24T08:02:51;12.03;;;10.93;;
1831;SDS011;1680;48.106;11.708;2023-08-24T08:05:19;12.00;;;11.00;;
1831;SDS011;1680;48.106;11.708;2023-08-24T08:07:46;11.80;;;10.90;;
1831;SDS011;1680;48.106;11.708;2023-08-24T08:10:13;11.83;;;11.00;;
1831;SDS011;1680;48.106;11.708;2023-08-24T08:12:42;11.13;;;10.23;;
1831;SDS011;1680;48.106;11.708;2023-08-24T08:15:09;12.20;;;11.20;;
1831;SDS011;1680;48.106;11.708;2023-08-24T08:17:36;11.03;;;10.03;;
1831;SDS011;1680;48.106;11.708;2023-08-24T08:20:05;11.10;;;10.17;;
1831;SDS011;1680;48.106;11.708;2023-08-24T08:22:33;11.47;;;10.43;;
1831;SDS011;1680;48.106;11.708;2023-08-24T08:25:03;11.53;;;10.50;;
1831;SDS011;1680;48.106;11.708;2023-08-24T08:27:31;11.47;;;10.43;;
1831;SDS011;1680;48.106;11.708;2023-08-24T08:29:58;12.23;;;11.10;;
1831;SDS011;1680;48.106;11.708;2023-08-24T08:32:26;12.10;;;11.00;;
1831;SDS011;1680;48.106;11.708;2023-08-24T08:34:53;11.70;;;10.80;;
1831;SDS011;1680;48.106;11.708;2023-08-24T08:37:23;11.30;;;10.37;;
1831;SDS011;1680;48.106;11.708;2023-08-24T08:39:50;11.67;;;10.77;;
1831;SDS011;1680;48.106;11.708;2023-08-24T08:42:17;11.17;;;10.30;;
1831;SDS011;1680;48.106;11.708;2023-08-24T08:44:45;11.20;;;10.30;;
1831;SDS011;1680;48.106;11.708;2023-08-24T08:47:13;11.03;;;10.10;;
1831;SDS011;1680;48.106;11.708;2023-08-24T08:49:41;10.80;;;9.90;;
1831;SDS011;1680;48.106;11.708;2023-08-24T08:52:10;10.73;;;9.83;;
1831;SDS011;1680;48.106;11.708;2023-08-24T08:54:39;10.23;;;9.30;;
1831;SDS011;1680;48.106;11.708;2023-08-24T08:57:06;13.53;;;10.90;;
1831;SDS011;1680;48.106;11.708;2023-08-24T08:59:34;10.73;;;9.93;;
1831;SDS011;1680;48.106;11.708;2023-08-24T09:02:02;10.63;;;9.57;;
1831;SDS011;1680;48.106;11.708;2023-08-24T09:04:31;11.83;;;10.63;;
1831;SDS011;1680;48.106;11.708;2023-08-24T09:06:59;11.60;;;10.70;;
1831;SDS011;1680;48.106;11.708;2023-08-24T09:09:29;10.80;;;9.80;;
1831;SDS011;1680;48.106;11.708;2023-08-24T09:11:58;10.83;;;9.83;;
1831;SDS011;1680;48.106;11.708;2023-08-24T09:14:26;12.33;;;11.40;;
1831;SDS011;1680;48.106;11.708;2023-08-24T09:16:53;11.07;;;10.13;;
1831;SDS011;1680;48.106;11.708;2023-08-24T09:19:20;10.53;;;9.50;;
1831;SDS011;1680;48.106;11.708;2023-08-24T09:21:56;11.10;;;10.03;;
1831;SDS011;1680;48.106;11.708;2023-08-24T09:24:28;10.80;;;10.00;;
1831;SDS011;1680;48.106;11.708;2023-08-24T09:26:58;11.07;;;10.00;;
1831;SDS011;1680;48.106;11.708;2023-08-24T09:29:26;10.50;;;9.60;;
1831;SDS011;1680;48.106;11.708;2023-08-24T09:31:53;11.70;;;10.67;;
1831;SDS011;1680;48.106;11.708;2023-08-24T09:34:20;9.87;;;8.93;;
1831;SDS011;1680;48.106;11.708;2023-08-24T09:36:52;10.40;;;9.50;;
1831;SDS011;1680;48.106;11.708;2023-08-24T09:39:19;10.87;;;9.90;;
1831;SDS011;1680;48.106;11.708;2023-08-24T09:41:49;10.80;;;9.73;;
1831;SDS011;1680;48.106;11.708;2023-08-24T09:44:18;10.80;;;9.90;;
1831;SDS011;1680;48.106;11.708;2023-08-24T09:46:46;11.53;;;10.20;;
1831;SDS011;1680;48.106;11.708;2023-08-24T09:49:13;10.80;;;9.70;;
1831;SDS011;1680;48.106;11.708;2023-08-24T09:51:40;10.80;;;9.90;;
1831;SDS011;1680;48.106;11.708;2023-08-24T09:54:10;10.67;;;9.60;;
1831;SDS011;1680;48.106;11.708;2023-08-24T09:56:39;10.87;;;10.00;;
1831;SDS011;1680;48.106;11.708;2023-08-24T09:59:10;10.87;;;10.07;;
1831;SDS011;1680;48.106;11.708;2023-08-24T10:01:42;9.53;;;8.70;;
1831;SDS011;1680;48.106;11.708;2023-08-24T10:04:09;9.90;;;9.20;;
1831;SDS011;1680;48.106;11.708;2023-08-24T10:06:39;11.03;;;10.03;;
1831;SDS011;1680;48.106;11.708;2023-08-24T10:09:07;10.40;;;9.37;;
1831;SDS011;1680;48.106;11.708;2023-08-24T10:11:37;11.00;;;9.90;;
1831;SDS011;1680;48.106;11.708;2023-08-24T10:14:10;10.53;;;9.60;;
1831;SDS011;1680;48.106;11.708;2023-08-24T10:16:43;10.03;;;9.33;;
1831;SDS011;1680;48.106;11.708;2023-08-24T10:19:12;10.30;;;9.33;;
1831;SDS011;1680;48.106;11.708;2023-08-24T10:21:40;10.03;;;9.20;;
1831;SDS011;1680;48.106;11.708;2023-08-24T10:24:08;10.40;;;9.50;;
1831;SDS011;1680;48.106;11.708;2023-08-24T10:26:38;10.57;;;9.67;;
1831;SDS011;1680;48.106;11.708;2023-08-24T10:29:06;10.80;;;9.80;;
1831;SDS011;1680;48.106;11.708;2023-08-24T10:31:34;9.70;;;8.90;;
1831;SDS011;1680;48.106;11.708;2023-08-24T10:34:04;9.70;;;9.00;;
1831;SDS011;1680;48.106;11.708;2023-08-24T10:36:32;9.40;;;8.63;;
1831;SDS011;1680;48.106;11.708;2023-08-24T10:39:02;9.70;;;8.60;;
1831;SDS011;1680;48.106;11.708;2023-08-24T10:41:45;9.73;;;8.93;;
1831;SDS011;1680;48.106;11.708;2023-08-24T10:44:19;9.33;;;8.47;;
1831;SDS011;1680;48.106;11.708;2023-08-24T10:49:59;8.70;;;8.10;;
1831;SDS011;1680;48.106;11.708;2023-08-24T10:52:30;9.20;;;8.40;;
1831;SDS011;1680;48.106;11.708;2023-08-24T10:54:59;10.23;;;9.03;;
1831;SDS011;1680;48.106;11.708;2023-08-24T10:57:34;8.77;;;7.97;;
1831;SDS011;1680;48.106;11.708;2023-08-24T11:00:15;10.40;;;9.40;;
1831;SDS011;1680;48.106;11.708;2023-08-24T11:02:49;9.47;;;8.63;;
1831;SDS011;1680;48.106;11.708;2023-08-24T11:05:20;9.97;;;8.87;;
1831;SDS011;1680;48.106;11.708;2023-08-24T11:07:49;9.93;;;9.00;;
1831;SDS011;1680;48.106;11.708;2023-08-24T11:10:20;9.23;;;8.43;;
1831;SDS011;1680;48.106;11.708;2023-08-24T11:13:07;10.00;;;9.00;;
1831;SDS011;1680;48.106;11.708;2023-08-24T11:15:39;9.33;;;8.43;;
1831;SDS011;1680;48.106;11.708;2023-08-24T11:18:14;9.33;;;8.43;;
1831;SDS011;1680;48.106;11.708;2023-08-24T11:20:48;8.87;;;8.03;;
1831;SDS011;1680;48.106;11.708;2023-08-24T11:23:17;9.50;;;8.60;;
1831;SDS011;1680;48.106;11.708;2023-08-24T11:25:45;9.57;;;8.67;;
1831;SDS011;1680;48.106;11.708;2023-08-24T11:28:16;9.70;;;7.50;;
1831;SDS011;1680;48.106;11.708;2023-08-24T11:30:45;8.57;;;7.67;;
1831;SDS011;1680;48.106;11.708;2023-08-24T11:33:12;10.93;;;8.50;;
1831;SDS011;1680;48.106;11.708;2023-08-24T11:35:41;9.60;;;8.60;;
1831;SDS011;1680;48.106;11.708;2023-08-24T11:38:10;9.10;;;8.40;;
1831;SDS011;1680;48.106;11.708;2023-08-24T11:40:38;10.37;;;9.47;;
1831;SDS011;1680;48.106;11.708;2023-08-24T11:43:05;9.60;;;8.80;;
1831;SDS011;1680;48.106;11.708;2023-08-24T11:45:33;7.53;;;6.93;;
1831;SDS011;1680;48.106;11.708;2023-08-24T11:48:03;8.30;;;7.47;;
1831;SDS011;1680;48.106;11.708;2023-08-24T11:50:30;9.13;;;8.10;;
1831;SDS011;1680;48.106;11.708;2023-08-24T11:52:59;8.87;;;8.17;;
1831;SDS011;1680;48.106;11.708;2023-08-24T11:55:29;11.20;;;8.80;;
1831;SDS011;1680;48.106;11.708;2023-08-24T11:57:56;8.67;;;7.90;;
1831;SDS011;1680;48.106;11.708;2023-08-24T12:00:23;10.30;;;7.80;;
1831;SDS011;1680;48.106;11.708;2023-08-24T12:02:52;8.70;;;7.80;;
1831;SDS011;1680;48.106;11.708;2023-08-24T12:05:20;9.10;;;8.30;;
1831;SDS011;1680;48.106;11.708;2023-08-24T12:07:48;8.23;;;7.57;;
1831;SDS011;1680;48.106;11.708;2023-08-24T12:10:16;7.43;;;6.63;;
1831;SDS011;1680;48.106;11.708;2023-08-24T12:12:44;9.73;;;8.30;;
1831;SDS011;1680;48.106;11.708;2023-08-24T12:15:18;8.07;;;7.27;;
1831;SDS011;1680;48.106;11.708;2023-08-24T12:17:46;8.47;;;7.67;;
1831;SDS011;1680;48.106;11.708;2023-08-24T12:20:20;8.43;;;7.17;;
1831;SDS011;1680;48.106;11.708;2023-08-24T12:22:51;9.30;;;7.20;;
1831;SDS011;1680;48.106;11.708;2023-08-24T12:25:21;9.00;;;7.20;;
1831;SDS011;1680;48.106;11.708;2023-08-24T12:27:51;6.60;;;6.00;;
1831;SDS011;1680;48.106;11.708;2023-08-24T12:30:19;8.70;;;7.33;;
1831;SDS011;1680;48.106;11.708;2023-08-24T12:32:47;7.70;;;7.00;;
1831;SDS011;1680;48.106;11.708;2023-08-24T12:35:16;7.53;;;6.93;;
1831;SDS011;1680;48.106;11.708;2023-08-24T12:37:44;7.50;;;6.17;;
1831;SDS011;1680;48.106;11.708;2023-08-24T12:40:12;9.90;;;6.63;;
1831;SDS011;1680;48.106;11.708;2023-08-24T12:42:40;8.07;;;6.60;;
1831;SDS011;1680;48.106;11.708;2023-08-24T12:45:09;8.37;;;7.57;;
1831;SDS011;1680;48.106;11.708;2023-08-24T12:47:36;7.53;;;6.80;;
1831;SDS011;1680;48.106;11.708;2023-08-24T12:50:06;7.83;;;7.03;;
1831;SDS011;1680;48.106;11.708;2023-08-24T12:52:33;8.30;;;7.50;;
1831;SDS011;1680;48.106;11.708;2023-08-24T12:55:00;12.57;;;7.40;;
1831;SDS011;1680;48.106;11.708;2023-08-24T12:57:29;8.73;;;7.83;;
1831;SDS011;1680;48.106;11.708;2023-08-24T12:59:57;8.60;;;7.27;;
1831;SDS011;1680;48.106;11.708;2023-08-24T13:02:25;8.93;;;7.50;;
1831;SDS011;1680;48.106;11.708;2023-08-24T13:04:53;8.00;;;7.30;;
1831;SDS011;1680;48.106;11.708;2023-08-24T13:07:20;10.73;;;7.67;;
1831;SDS011;1680;48.106;11.708;2023-08-24T13:09:47;8.53;;;6.80;;
1831;SDS011;1680;48.106;11.708;2023-08-24T13:12:14;7.77;;;7.07;;
1831;SDS011;1680;48.106;11.708;2023-08-24T13:14:42;8.30;;;7.20;;
1831;SDS011;1680;48.106;11.708;2023-08-24T13:17:09;9.37;;;7.57;;
1831;SDS011;1680;48.106;11.708;2023-08-24T13:19:38;9.30;;;7.90;;
1831;SDS011;1680;48.106;11.708;2023-08-24T13:22:22;8.43;;;7.23;;
1831;SDS011;1680;48.106;11.708;2023-08-24T13:24:49;12.10;;;7.70;;
1831;SDS011;1680;48.106;11.708;2023-08-24T13:27:16;10.50;;;7.30;;
1831;SDS011;1680;48.106;11.708;2023-08-24T13:29:44;9.73;;;7.50;;
1831;SDS011;1680;48.106;11.708;2023-08-24T13:32:11;8.57;;;6.60;;
1831;SDS011;1680;48.106;11.708;2023-08-24T13:34:40;8.00;;;7.20;;
1831;SDS011;1680;48.106;11.708;2023-08-24T13:37:08;10.93;;;7.50;;
1831;SDS011;1680;48.106;11.708;2023-08-24T13:39:37;8.37;;;7.27;;
1831;SDS011;1680;48.106;11.708;2023-08-24T13:42:04;10.20;;;7.67;;
1831;SDS011;1680;48.106;11.708;2023-08-24T13:44:31;10.17;;;8.67;;
1831;SDS011;1680;48.106;11.708;2023-08-24T13:46:59;8.20;;;7.40;;
1831;SDS011;1680;48.106;11.708;2023-08-24T13:49:26;8.47;;;7.50;;
1831;SDS011;1680;48.106;11.708;2023-08-24T13:51:54;10.30;;;7.60;;
1831;SDS011;1680;48.106;11.708;2023-08-24T13:54:21;10.00;;;7.43;;
1831;SDS011;1680;48.106;11.708;2023-08-24T13:56:51;8.30;;;7.37;;
1831;SDS011;1680;48.106;11.708;2023-08-24T13:59:19;10.23;;;7.70;;
1831;SDS011;1680;48.106;11.708;2023-08-24T14:01:47;11.03;;;8.20;;
1831;SDS011;1680;48.106;11.708;2023-08-24T14:04:14;9.67;;;7.93;;
1831;SDS011;1680;48.106;11.708;2023-08-24T14:06:41;10.87;;;7.67;;
1831;SDS011;1680;48.106;11.708;2023-08-24T14:09:10;9.50;;;7.70;;
1831;SDS011;1680;48.106;11.708;2023-08-24T14:11:37;9.07;;;8.10;;
1831;SDS011;1680;48.106;11.708;2023-08-24T14:14:04;8.90;;;8.00;;
1831;SDS011;1680;48.106;11.708;2023-08-24T14:16:31;9.17;;;7.27;;
1831;SDS011;1680;48.106;11.708;2023-08-24T14:18:58;10.20;;;7.70;;
1831;SDS011;1680;48.106;11.708;2023-08-24T14:21:25;9.70;;;8.07;;
1831;SDS011;1680;48.106;11.708;2023-08-24T14:23:53;9.20;;;7.80;;
1831;SDS011;1680;48.106;11.708;2023-08-24T14:26:21;10.50;;;7.80;;
1831;SDS011;1680;48.106;11.708;2023-08-24T14:28:49;10.33;;;7.60;;
1831;SDS011;1680;48.106;11.708;2023-08-24T14:31:18;8.27;;;7.40;;
1831;SDS011;1680;48.106;11.708;2023-08-24T14:33:46;10.00;;;7.97;;
1831;SDS011;1680;48.106;11.708;2023-08-24T14:36:13;8.60;;;7.63;;
1831;SDS011;1680;48.106;11.708;2023-08-24T14:38:41;9.20;;;7.93;;
1831;SDS011;1680;48.106;11.708;2023-08-24T14:41:08;14.57;;;8.60;;
1831;SDS011;1680;48.106;11.708;2023-08-24T14:43:38;9.73;;;7.63;;
1831;SDS011;1680;48.106;11.708;2023-08-24T14:46:07;9.90;;;7.80;;
1831;SDS011;1680;48.106;11.708;2023-08-24T14:48:34;8.80;;;7.90;;
1831;SDS011;1680;48.106;11.708;2023-08-24T14:51:02;9.10;;;8.20;;
1831;SDS011;1680;48.106;11.708;2023-08-24T14:53:29;9.30;;;7.40;;